sensor_id;sensor_type;location;lat;lon;timestamp;P1;durP1;ratioP1;P2;durP2;ratioP2
6306;SDS011;3186;54.062;9.962;2023-05-20T00:01:16;2.77;;;1.87;;
6306;SDS011;3186;54.062;9.962;2023-05-20T00:03:42;2.70;;;1.60;;
6306;SDS011;3186;54.062;9.962;2023-05-20T00:06:08;1.67;;;1.57;;
6306;SDS011;3186;54.062;9.962;2023-05-20T00:08:33;2.57;;;1.80;;
6306;SDS011;3186;54.062;9.962;2023-05-20T00:10:59;2.47;;;1.73;;
6306;SDS011;3186;54.062;9.962;2023-05-20T00:13:25;3.27;;;1.70;;
6306;SDS011;3186;54.062;9.962;2023-05-20T00:15:51;2.57;;;1.53;;
6306;SDS011;3186;54.062;9.962;2023-05-20T00:18:17;4.63;;;1.87;;
6306;SDS011;3186;54.062;9.962;2023-05-20T00:20:43;5.03;;;1.70;;
6306;SDS011;3186;54.062;9.962;2023-05-20T00:23:09;3.77;;;1.80;;
6306;SDS011;3186;54.062;9.962;2023-05-20T00:25:34;1.40;;;1.13;;
6306;SDS011;3186;54.062;9.962;2023-05-20T00:28:00;4.97;;;1.67;;
6306;SDS011;3186;54.062;9.962;2023-05-20T00:30:26;3.17;;;1.67;;
6306;SDS011;3186;54.062;9.962;2023-05-20T00:32:52;6.37;;;1.70;;
6306;SDS011;3186;54.062;9.962;2023-05-20T00:35:17;3.93;;;1.53;;
6306;SDS011;3186;54.062;9.962;2023-05-20T00:37:43;1.70;;;1.60;;
6306;SDS011;3186;54.062;9.962;2023-05-20T00:40:09;5.30;;;1.80;;
6306;SDS011;3186;54.062;9.962;2023-05-20T00:42:36;2.40;;;1.60;;
6306;SDS011;3186;54.062;9.962;2023-05-20T00:45:02;6.00;;;1.70;;
6306;SDS011;3186;54.062;9.962;2023-05-20T00:47:31;2.10;;;1.60;;
6306;SDS011;3186;54.062;9.962;2023-05-20T00:50:00;2.30;;;1.60;;
6306;SDS011;3186;54.062;9.962;2023-05-20T00:52:30;3.33;;;1.70;;
6306;SDS011;3186;54.062;9.962;2023-05-20T00:54:57;2.60;;;1.77;;
6306;SDS011;3186;54.062;9.962;2023-05-20T00:57:23;2.80;;;1.60;;
6306;SDS011;3186;54.062;9.962;2023-05-20T00:59:56;2.77;;;1.50;;
6306;SDS011;3186;54.062;9.962;2023-05-20T01:02:23;5.07;;;1.57;;
6306;SDS011;3186;54.062;9.962;2023-05-20T01:04:48;1.77;;;1.30;;
6306;SDS011;3186;54.062;9.962;2023-05-20T01:07:15;4.10;;;1.50;;
6306;SDS011;3186;54.062;9.962;2023-05-20T01:09:42;3.30;;;1.53;;
6306;SDS011;3186;54.062;9.962;2023-05-20T01:12:11;1.70;;;1.60;;
6306;SDS011;3186;54.062;9.962;2023-05-20T01:14:49;4.67;;;1.90;;
6306;SDS011;3186;54.062;9.962;2023-05-20T01:17:18;2.33;;;1.60;;
6306;SDS011;3186;54.062;9.962;2023-05-20T01:19:45;3.23;;;1.40;;
6306;SDS011;3186;54.062;9.962;2023-05-20T01:22:13;1.50;;;1.40;;
6306;SDS011;3186;54.062;9.962;2023-05-20T01:24:41;2.60;;;1.40;;
6306;SDS011;3186;54.062;9.962;2023-05-20T01:27:09;2.50;;;1.53;;
6306;SDS011;3186;54.062;9.962;2023-05-20T01:29:39;1.40;;;1.30;;
6306;SDS011;3186;54.062;9.962;2023-05-20T01:32:07;1.93;;;1.43;;
6306;SDS011;3186;54.062;9.962;2023-05-20T01:34:49;2.37;;;1.50;;
6306;SDS011;3186;54.062;9.962;2023-05-20T01:37:17;2.10;;;1.47;;
6306;SDS011;3186;54.062;9.962;2023-05-20T01:39:44;2.10;;;1.20;;
6306;SDS011;3186;54.062;9.962;2023-05-20T01:42:11;4.53;;;1.90;;
6306;SDS011;3186;54.062;9.962;2023-05-20T01:44:40;2.83;;;1.57;;
6306;SDS011;3186;54.062;9.962;2023-05-20T01:47:07;1.93;;;1.40;;
6306;SDS011;3186;54.062;9.962;2023-05-20T01:49:33;2.73;;;1.37;;
6306;SDS011;3186;54.062;9.962;2023-05-20T01:51:59;2.90;;;1.67;;
6306;SDS011;3186;54.062;9.962;2023-05-20T01:54:25;2.23;;;1.40;;
6306;SDS011;3186;54.062;9.962;2023-05-20T01:56:51;1.27;;;1.10;;
6306;SDS011;3186;54.062;9.962;2023-05-20T01:59:20;2.07;;;1.43;;
6306;SDS011;3186;54.062;9.962;2023-05-20T02:01:45;4.30;;;1.53;;
6306;SDS011;3186;54.062;9.962;2023-05-20T02:04:14;1.97;;;1.33;;
6306;SDS011;3186;54.062;9.962;2023-05-20T02:06:40;1.30;;;1.20;;
6306;SDS011;3186;54.062;9.962;2023-05-20T02:09:06;4.30;;;1.43;;
6306;SDS011;3186;54.062;9.962;2023-05-20T02:11:31;1.70;;;1.20;;
6306;SDS011;3186;54.062;9.962;2023-05-20T02:13:57;4.27;;;1.53;;
6306;SDS011;3186;54.062;9.962;2023-05-20T02:16:23;1.40;;;1.30;;
6306;SDS011;3186;54.062;9.962;2023-05-20T02:18:49;2.73;;;1.63;;
6306;SDS011;3186;54.062;9.962;2023-05-20T02:21:17;1.73;;;1.50;;
6306;SDS011;3186;54.062;9.962;2023-05-20T02:23:43;2.20;;;1.43;;
6306;SDS011;3186;54.062;9.962;2023-05-20T02:26:09;3.20;;;1.20;;
6306;SDS011;3186;54.062;9.962;2023-05-20T02:28:35;1.53;;;1.40;;
6306;SDS011;3186;54.062;9.962;2023-05-20T02:31:04;1.20;;;1.10;;
6306;SDS011;3186;54.062;9.962;2023-05-20T02:33:30;3.03;;;1.30;;
6306;SDS011;3186;54.062;9.962;2023-05-20T02:35:57;1.63;;;1.30;;
6306;SDS011;3186;54.062;9.962;2023-05-20T02:38:23;1.87;;;1.40;;
6306;SDS011;3186;54.062;9.962;2023-05-20T02:40:48;1.10;;;1.10;;
6306;SDS011;3186;54.062;9.962;2023-05-20T02:43:14;1.77;;;1.53;;
6306;SDS011;3186;54.062;9.962;2023-05-20T02:45:40;1.97;;;1.40;;
6306;SDS011;3186;54.062;9.962;2023-05-20T02:48:06;1.90;;;1.50;;
6306;SDS011;3186;54.062;9.962;2023-05-20T02:50:32;2.23;;;1.30;;
6306;SDS011;3186;54.062;9.962;2023-05-20T02:52:58;2.53;;;1.30;;
6306;SDS011;3186;54.062;9.962;2023-05-20T02:55:24;1.20;;;1.10;;
6306;SDS011;3186;54.062;9.962;2023-05-20T02:57:50;2.17;;;1.27;;
6306;SDS011;3186;54.062;9.962;2023-05-20T03:00:16;1.70;;;1.33;;
6306;SDS011;3186;54.062;9.962;2023-05-20T03:02:43;1.97;;;1.17;;
6306;SDS011;3186;54.062;9.962;2023-05-20T03:05:08;1.77;;;1.40;;
6306;SDS011;3186;54.062;9.962;2023-05-20T03:07:35;1.40;;;1.30;;
6306;SDS011;3186;54.062;9.962;2023-05-20T03:10:01;1.37;;;1.23;;
6306;SDS011;3186;54.062;9.962;2023-05-20T03:12:27;1.73;;;1.27;;
6306;SDS011;3186;54.062;9.962;2023-05-20T03:14:53;3.50;;;1.53;;
6306;SDS011;3186;54.062;9.962;2023-05-20T03:17:21;2.93;;;1.50;;
6306;SDS011;3186;54.062;9.962;2023-05-20T03:19:46;1.50;;;1.40;;
6306;SDS011;3186;54.062;9.962;2023-05-20T03:22:12;2.20;;;1.40;;
6306;SDS011;3186;54.062;9.962;2023-05-20T03:24:38;2.17;;;1.50;;
6306;SDS011;3186;54.062;9.962;2023-05-20T03:27:05;3.37;;;1.47;;
6306;SDS011;3186;54.062;9.962;2023-05-20T03:29:32;1.60;;;1.40;;
6306;SDS011;3186;54.062;9.962;2023-05-20T03:31:58;3.40;;;1.43;;
6306;SDS011;3186;54.062;9.962;2023-05-20T03:34:24;1.60;;;1.50;;
6306;SDS011;3186;54.062;9.962;2023-05-20T03:36:52;1.60;;;1.50;;
6306;SDS011;3186;54.062;9.962;2023-05-20T03:39:18;2.93;;;1.47;;
6306;SDS011;3186;54.062;9.962;2023-05-20T03:41:44;1.53;;;1.43;;
6306;SDS011;3186;54.062;9.962;2023-05-20T03:44:10;2.37;;;1.37;;
6306;SDS011;3186;54.062;9.962;2023-05-20T03:46:37;1.37;;;1.27;;
6306;SDS011;3186;54.062;9.962;2023-05-20T03:49:03;5.40;;;1.43;;
6306;SDS011;3186;54.062;9.962;2023-05-20T03:51:30;2.20;;;1.30;;
6306;SDS011;3186;54.062;9.962;2023-05-20T03:54:02;1.87;;;1.43;;
6306;SDS011;3186;54.062;9.962;2023-05-20T03:56:28;2.20;;;1.27;;
6306;SDS011;3186;54.062;9.962;2023-05-20T03:58:54;2.13;;;1.10;;
6306;SDS011;3186;54.062;9.962;2023-05-20T04:01:20;2.57;;;1.40;;
6306;SDS011;3186;54.062;9.962;2023-05-20T04:03:50;1.33;;;1.23;;
6306;SDS011;3186;54.062;9.962;2023-05-20T04:06:15;1.40;;;1.30;;
6306;SDS011;3186;54.062;9.962;2023-05-20T04:08:41;1.60;;;1.50;;
6306;SDS011;3186;54.062;9.962;2023-05-20T04:11:07;4.73;;;1.67;;
6306;SDS011;3186;54.062;9.962;2023-05-20T04:13:33;2.90;;;1.40;;
6306;SDS011;3186;54.062;9.962;2023-05-20T04:15:59;1.50;;;1.27;;
6306;SDS011;3186;54.062;9.962;2023-05-20T04:18:27;2.57;;;1.40;;
6306;SDS011;3186;54.062;9.962;2023-05-20T04:20:56;2.00;;;1.37;;
6306;SDS011;3186;54.062;9.962;2023-05-20T04:23:23;3.23;;;1.30;;
6306;SDS011;3186;54.062;9.962;2023-05-20T04:25:49;1.27;;;1.13;;
6306;SDS011;3186;54.062;9.962;2023-05-20T04:28:14;4.93;;;1.50;;
6306;SDS011;3186;54.062;9.962;2023-05-20T04:30:41;2.77;;;1.13;;
6306;SDS011;3186;54.062;9.962;2023-05-20T04:33:10;1.80;;;1.37;;
6306;SDS011;3186;54.062;9.962;2023-05-20T04:35:36;2.40;;;1.37;;
6306;SDS011;3186;54.062;9.962;2023-05-20T04:38:07;1.90;;;1.60;;
6306;SDS011;3186;54.062;9.962;2023-05-20T04:40:33;1.37;;;1.27;;
6306;SDS011;3186;54.062;9.962;2023-05-20T04:42:59;2.47;;;1.50;;
6306;SDS011;3186;54.062;9.962;2023-05-20T04:45:26;1.97;;;1.43;;
6306;SDS011;3186;54.062;9.962;2023-05-20T04:47:52;2.47;;;1.53;;
6306;SDS011;3186;54.062;9.962;2023-05-20T04:50:22;1.43;;;1.30;;
6306;SDS011;3186;54.062;9.962;2023-05-20T04:52:47;3.43;;;1.50;;
6306;SDS011;3186;54.062;9.962;2023-05-20T04:55:14;2.50;;;1.40;;
6306;SDS011;3186;54.062;9.962;2023-05-20T04:57:41;1.37;;;1.27;;
6306;SDS011;3186;54.062;9.962;2023-05-20T05:00:08;1.63;;;1.30;;
6306;SDS011;3186;54.062;9.962;2023-05-20T05:02:35;1.80;;;1.30;;
6306;SDS011;3186;54.062;9.962;2023-05-20T05:05:02;1.37;;;1.27;;
6306;SDS011;3186;54.062;9.962;2023-05-20T05:07:28;2.03;;;1.40;;
6306;SDS011;3186;54.062;9.962;2023-05-20T05:09:53;1.77;;;1.20;;
6306;SDS011;3186;54.062;9.962;2023-05-20T05:12:20;1.57;;;1.43;;
6306;SDS011;3186;54.062;9.962;2023-05-20T05:14:46;1.17;;;1.13;;
6306;SDS011;3186;54.062;9.962;2023-05-20T05:17:13;1.53;;;1.20;;
6306;SDS011;3186;54.062;9.962;2023-05-20T05:19:39;2.53;;;1.43;;
6306;SDS011;3186;54.062;9.962;2023-05-20T05:22:06;3.70;;;1.37;;
6306;SDS011;3186;54.062;9.962;2023-05-20T05:24:33;1.00;;;1.00;;
6306;SDS011;3186;54.062;9.962;2023-05-20T05:26:59;2.50;;;1.37;;
6306;SDS011;3186;54.062;9.962;2023-05-20T05:29:25;2.13;;;1.57;;
6306;SDS011;3186;54.062;9.962;2023-05-20T05:31:51;3.07;;;1.57;;
6306;SDS011;3186;54.062;9.962;2023-05-20T05:34:17;2.67;;;1.50;;
6306;SDS011;3186;54.062;9.962;2023-05-20T05:36:43;1.60;;;1.40;;
6306;SDS011;3186;54.062;9.962;2023-05-20T05:39:09;3.80;;;1.40;;
6306;SDS011;3186;54.062;9.962;2023-05-20T05:41:35;2.67;;;1.77;;
6306;SDS011;3186;54.062;9.962;2023-05-20T05:44:01;3.47;;;1.50;;
6306;SDS011;3186;54.062;9.962;2023-05-20T05:46:27;4.20;;;1.50;;
6306;SDS011;3186;54.062;9.962;2023-05-20T05:48:53;5.27;;;1.80;;
6306;SDS011;3186;54.062;9.962;2023-05-20T05:51:19;6.87;;;1.70;;
6306;SDS011;3186;54.062;9.962;2023-05-20T05:53:47;3.10;;;1.73;;
6306;SDS011;3186;54.062;9.962;2023-05-20T05:56:13;2.67;;;1.10;;
6306;SDS011;3186;54.062;9.962;2023-05-20T05:58:39;2.57;;;1.40;;
6306;SDS011;3186;54.062;9.962;2023-05-20T06:01:05;2.10;;;1.60;;
6306;SDS011;3186;54.062;9.962;2023-05-20T06:03:31;3.27;;;1.50;;
6306;SDS011;3186;54.062;9.962;2023-05-20T06:05:57;2.13;;;1.53;;
6306;SDS011;3186;54.062;9.962;2023-05-20T06:08:23;10.20;;;2.00;;
6306;SDS011;3186;54.062;9.962;2023-05-20T06:10:49;2.33;;;1.70;;
6306;SDS011;3186;54.062;9.962;2023-05-20T06:13:15;4.03;;;1.77;;
6306;SDS011;3186;54.062;9.962;2023-05-20T06:15:42;4.07;;;1.60;;
6306;SDS011;3186;54.062;9.962;2023-05-20T06:18:10;2.30;;;1.83;;
6306;SDS011;3186;54.062;9.962;2023-05-20T06:20:39;2.77;;;1.60;;
6306;SDS011;3186;54.062;9.962;2023-05-20T06:23:05;2.37;;;1.67;;
6306;SDS011;3186;54.062;9.962;2023-05-20T06:25:42;3.47;;;2.10;;
6306;SDS011;3186;54.062;9.962;2023-05-20T06:28:08;3.03;;;1.70;;
6306;SDS011;3186;54.062;9.962;2023-05-20T06:30:35;4.43;;;1.63;;
6306;SDS011;3186;54.062;9.962;2023-05-20T06:33:01;1.97;;;1.60;;
6306;SDS011;3186;54.062;9.962;2023-05-20T06:35:27;2.73;;;1.90;;
6306;SDS011;3186;54.062;9.962;2023-05-20T06:37:53;4.40;;;2.07;;
6306;SDS011;3186;54.062;9.962;2023-05-20T06:40:19;3.90;;;1.50;;
6306;SDS011;3186;54.062;9.962;2023-05-20T06:42:45;3.00;;;1.70;;
6306;SDS011;3186;54.062;9.962;2023-05-20T06:45:12;5.30;;;2.07;;
6306;SDS011;3186;54.062;9.962;2023-05-20T06:48:01;4.67;;;2.00;;
6306;SDS011;3186;54.062;9.962;2023-05-20T06:50:26;1.83;;;1.73;;
6306;SDS011;3186;54.062;9.962;2023-05-20T06:52:53;4.27;;;2.57;;
6306;SDS011;3186;54.062;9.962;2023-05-20T06:55:19;4.97;;;2.57;;
6306;SDS011;3186;54.062;9.962;2023-05-20T06:57:45;4.47;;;2.70;;
6306;SDS011;3186;54.062;9.962;2023-05-20T07:00:13;4.57;;;3.50;;
6306;SDS011;3186;54.062;9.962;2023-05-20T07:02:40;4.37;;;3.40;;
6306;SDS011;3186;54.062;9.962;2023-05-20T07:05:09;7.63;;;4.40;;
6306;SDS011;3186;54.062;9.962;2023-05-20T07:07:35;9.63;;;3.43;;
6306;SDS011;3186;54.062;9.962;2023-05-20T07:10:01;4.97;;;3.17;;
6306;SDS011;3186;54.062;9.962;2023-05-20T07:12:33;5.87;;;3.07;;
6306;SDS011;3186;54.062;9.962;2023-05-20T07:14:59;3.40;;;2.57;;
6306;SDS011;3186;54.062;9.962;2023-05-20T07:17:25;7.00;;;2.90;;
6306;SDS011;3186;54.062;9.962;2023-05-20T07:19:53;5.77;;;2.50;;
6306;SDS011;3186;54.062;9.962;2023-05-20T07:22:20;4.10;;;2.50;;
6306;SDS011;3186;54.062;9.962;2023-05-20T07:25:15;4.80;;;2.77;;
6306;SDS011;3186;54.062;9.962;2023-05-20T07:27:41;6.60;;;2.50;;
6306;SDS011;3186;54.062;9.962;2023-05-20T07:30:07;4.47;;;2.50;;
6306;SDS011;3186;54.062;9.962;2023-05-20T07:32:34;2.80;;;2.10;;
6306;SDS011;3186;54.062;9.962;2023-05-20T07:35:00;6.57;;;2.37;;
6306;SDS011;3186;54.062;9.962;2023-05-20T07:37:26;4.67;;;2.80;;
6306;SDS011;3186;54.062;9.962;2023-05-20T07:39:52;6.17;;;3.27;;
6306;SDS011;3186;54.062;9.962;2023-05-20T07:42:20;6.23;;;2.97;;
6306;SDS011;3186;54.062;9.962;2023-05-20T07:44:48;6.87;;;4.13;;
6306;SDS011;3186;54.062;9.962;2023-05-20T07:47:14;10.63;;;5.60;;
6306;SDS011;3186;54.062;9.962;2023-05-20T07:49:40;23.07;;;13.47;;
6306;SDS011;3186;54.062;9.962;2023-05-20T07:52:06;19.63;;;10.17;;
6306;SDS011;3186;54.062;9.962;2023-05-20T07:54:33;9.13;;;4.67;;
6306;SDS011;3186;54.062;9.962;2023-05-20T07:56:59;12.70;;;4.77;;
6306;SDS011;3186;54.062;9.962;2023-05-20T07:59:25;8.80;;;5.07;;
6306;SDS011;3186;54.062;9.962;2023-05-20T08:01:51;5.97;;;3.67;;
6306;SDS011;3186;54.062;9.962;2023-05-20T08:04:19;13.27;;;3.30;;
6306;SDS011;3186;54.062;9.962;2023-05-20T08:06:45;5.97;;;3.47;;
6306;SDS011;3186;54.062;9.962;2023-05-20T08:09:18;7.27;;;3.60;;
6306;SDS011;3186;54.062;9.962;2023-05-20T08:11:48;9.07;;;3.33;;
6306;SDS011;3186;54.062;9.962;2023-05-20T08:14:15;7.53;;;3.47;;
6306;SDS011;3186;54.062;9.962;2023-05-20T08:16:42;7.17;;;3.10;;
6306;SDS011;3186;54.062;9.962;2023-05-20T08:19:09;4.90;;;2.90;;
6306;SDS011;3186;54.062;9.962;2023-05-20T08:21:34;4.60;;;2.27;;
6306;SDS011;3186;54.062;9.962;2023-05-20T08:24:01;8.33;;;2.70;;
6306;SDS011;3186;54.062;9.962;2023-05-20T08:26:27;5.13;;;2.63;;
6306;SDS011;3186;54.062;9.962;2023-05-20T08:28:53;3.53;;;2.80;;
6306;SDS011;3186;54.062;9.962;2023-05-20T08:31:21;3.47;;;2.53;;
6306;SDS011;3186;54.062;9.962;2023-05-20T08:33:47;3.90;;;2.30;;
6306;SDS011;3186;54.062;9.962;2023-05-20T08:36:13;2.73;;;2.30;;
6306;SDS011;3186;54.062;9.962;2023-05-20T08:38:39;5.37;;;3.00;;
6306;SDS011;3186;54.062;9.962;2023-05-20T08:41:05;7.40;;;2.60;;
6306;SDS011;3186;54.062;9.962;2023-05-20T08:43:32;5.53;;;2.30;;
6306;SDS011;3186;54.062;9.962;2023-05-20T08:45:59;3.00;;;2.30;;
6306;SDS011;3186;54.062;9.962;2023-05-20T08:48:31;5.13;;;2.67;;
6306;SDS011;3186;54.062;9.962;2023-05-20T08:50:58;4.97;;;2.73;;
6306;SDS011;3186;54.062;9.962;2023-05-20T08:53:26;3.03;;;2.10;;
6306;SDS011;3186;54.062;9.962;2023-05-20T08:55:53;5.80;;;2.60;;
6306;SDS011;3186;54.062;9.962;2023-05-20T08:58:23;5.33;;;2.30;;
6306;SDS011;3186;54.062;9.962;2023-05-20T09:00:49;3.67;;;2.47;;
6306;SDS011;3186;54.062;9.962;2023-05-20T09:03:17;6.57;;;2.37;;
6306;SDS011;3186;54.062;9.962;2023-05-20T09:05:44;3.20;;;2.17;;
6306;SDS011;3186;54.062;9.962;2023-05-20T09:08:11;4.33;;;2.47;;
6306;SDS011;3186;54.062;9.962;2023-05-20T09:10:37;2.40;;;2.20;;
6306;SDS011;3186;54.062;9.962;2023-05-20T09:13:05;4.40;;;2.60;;
6306;SDS011;3186;54.062;9.962;2023-05-20T09:15:32;2.90;;;2.30;;
6306;SDS011;3186;54.062;9.962;2023-05-20T09:18:02;7.70;;;2.70;;
6306;SDS011;3186;54.062;9.962;2023-05-20T09:20:35;2.80;;;2.00;;
6306;SDS011;3186;54.062;9.962;2023-05-20T09:23:03;2.70;;;1.83;;
6306;SDS011;3186;54.062;9.962;2023-05-20T09:25:30;2.47;;;2.00;;
6306;SDS011;3186;54.062;9.962;2023-05-20T09:27:57;3.00;;;2.20;;
6306;SDS011;3186;54.062;9.962;2023-05-20T09:30:23;2.50;;;2.17;;
6306;SDS011;3186;54.062;9.962;2023-05-20T09:32:56;3.03;;;2.27;;
6306;SDS011;3186;54.062;9.962;2023-05-20T09:35:23;2.07;;;1.83;;
6306;SDS011;3186;54.062;9.962;2023-05-20T09:37:56;2.87;;;1.97;;
6306;SDS011;3186;54.062;9.962;2023-05-20T09:40:23;4.43;;;2.23;;
6306;SDS011;3186;54.062;9.962;2023-05-20T09:45:29;1.57;;;1.47;;
6306;SDS011;3186;54.062;9.962;2023-05-20T09:47:55;3.53;;;1.97;;
6306;SDS011;3186;54.062;9.962;2023-05-20T09:50:22;2.53;;;1.77;;
6306;SDS011;3186;54.062;9.962;2023-05-20T09:52:49;2.60;;;1.60;;
6306;SDS011;3186;54.062;9.962;2023-05-20T09:55:16;1.77;;;1.63;;
6306;SDS011;3186;54.062;9.962;2023-05-20T09:57:44;2.40;;;1.80;;
6306;SDS011;3186;54.062;9.962;2023-05-20T10:00:10;1.60;;;1.50;;
6306;SDS011;3186;54.062;9.962;2023-05-20T10:02:40;3.73;;;1.63;;
6306;SDS011;3186;54.062;9.962;2023-05-20T10:05:35;2.57;;;1.70;;
6306;SDS011;3186;54.062;9.962;2023-05-20T10:16:15;2.53;;;1.83;;
6306;SDS011;3186;54.062;9.962;2023-05-20T10:19:00;2.20;;;1.93;;
6306;SDS011;3186;54.062;9.962;2023-05-20T10:21:36;2.70;;;1.73;;
6306;SDS011;3186;54.062;9.962;2023-05-20T10:24:05;5.73;;;2.37;;
6306;SDS011;3186;54.062;9.962;2023-05-20T10:26:39;2.70;;;2.00;;
6306;SDS011;3186;54.062;9.962;2023-05-20T10:29:18;4.17;;;1.90;;
6306;SDS011;3186;54.062;9.962;2023-05-20T10:31:50;5.10;;;2.40;;
6306;SDS011;3186;54.062;9.962;2023-05-20T10:34:17;8.13;;;2.20;;
6306;SDS011;3186;54.062;9.962;2023-05-20T10:39:26;3.80;;;2.00;;
6306;SDS011;3186;54.062;9.962;2023-05-20T10:42:09;3.63;;;2.30;;
6306;SDS011;3186;54.062;9.962;2023-05-20T10:44:54;4.20;;;3.03;;
6306;SDS011;3186;54.062;9.962;2023-05-20T10:47:19;3.43;;;2.63;;
6306;SDS011;3186;54.062;9.962;2023-05-20T10:49:45;4.57;;;2.63;;
6306;SDS011;3186;54.062;9.962;2023-05-20T10:52:12;4.87;;;2.53;;
6306;SDS011;3186;54.062;9.962;2023-05-20T10:54:42;5.17;;;2.20;;
6306;SDS011;3186;54.062;9.962;2023-05-20T10:57:12;3.93;;;2.60;;
6306;SDS011;3186;54.062;9.962;2023-05-20T10:59:38;3.27;;;2.57;;
6306;SDS011;3186;54.062;9.962;2023-05-20T11:02:03;2.40;;;2.20;;
6306;SDS011;3186;54.062;9.962;2023-05-20T11:04:29;2.47;;;1.97;;
6306;SDS011;3186;54.062;9.962;2023-05-20T11:06:56;4.50;;;2.43;;
6306;SDS011;3186;54.062;9.962;2023-05-20T11:09:23;3.40;;;2.23;;
6306;SDS011;3186;54.062;9.962;2023-05-20T11:11:49;4.27;;;2.20;;
6306;SDS011;3186;54.062;9.962;2023-05-20T11:14:16;5.10;;;2.20;;
6306;SDS011;3186;54.062;9.962;2023-05-20T11:16:44;2.80;;;2.23;;
6306;SDS011;3186;54.062;9.962;2023-05-20T11:19:14;5.77;;;2.20;;
6306;SDS011;3186;54.062;9.962;2023-05-20T11:21:48;3.27;;;2.07;;
6306;SDS011;3186;54.062;9.962;2023-05-20T11:24:25;3.63;;;2.03;;
6306;SDS011;3186;54.062;9.962;2023-05-20T11:26:55;4.50;;;2.00;;
6306;SDS011;3186;54.062;9.962;2023-05-20T11:29:22;2.23;;;2.13;;
6306;SDS011;3186;54.062;9.962;2023-05-20T11:31:50;3.30;;;2.07;;
6306;SDS011;3186;54.062;9.962;2023-05-20T11:34:19;3.07;;;1.87;;
6306;SDS011;3186;54.062;9.962;2023-05-20T11:36:55;2.30;;;2.10;;
6306;SDS011;3186;54.062;9.962;2023-05-20T11:39:21;2.90;;;2.20;;
6306;SDS011;3186;54.062;9.962;2023-05-20T11:41:48;3.53;;;2.20;;
6306;SDS011;3186;54.062;9.962;2023-05-20T11:44:14;2.53;;;2.00;;
6306;SDS011;3186;54.062;9.962;2023-05-20T11:46:45;4.13;;;2.40;;
6306;SDS011;3186;54.062;9.962;2023-05-20T11:49:14;2.77;;;1.87;;
6306;SDS011;3186;54.062;9.962;2023-05-20T11:51:44;2.50;;;2.23;;
6306;SDS011;3186;54.062;9.962;2023-05-20T11:54:10;3.80;;;2.00;;
6306;SDS011;3186;54.062;9.962;2023-05-20T11:56:36;7.40;;;1.93;;
6306;SDS011;3186;54.062;9.962;2023-05-20T11:59:06;2.10;;;2.00;;
6306;SDS011;3186;54.062;9.962;2023-05-20T12:01:34;4.27;;;1.90;;
6306;SDS011;3186;54.062;9.962;2023-05-20T12:04:03;4.07;;;2.30;;
6306;SDS011;3186;54.062;9.962;2023-05-20T12:06:29;1.90;;;1.80;;
6306;SDS011;3186;54.062;9.962;2023-05-20T12:08:56;2.13;;;1.83;;
6306;SDS011;3186;54.062;9.962;2023-05-20T12:11:23;2.43;;;2.03;;
6306;SDS011;3186;54.062;9.962;2023-05-20T12:13:48;3.47;;;2.20;;
6306;SDS011;3186;54.062;9.962;2023-05-20T12:16:14;6.33;;;1.93;;
6306;SDS011;3186;54.062;9.962;2023-05-20T12:18:40;2.53;;;2.20;;
6306;SDS011;3186;54.062;9.962;2023-05-20T12:21:06;5.53;;;1.80;;
6306;SDS011;3186;54.062;9.962;2023-05-20T12:23:32;4.27;;;2.30;;
6306;SDS011;3186;54.062;9.962;2023-05-20T12:25:58;4.13;;;2.00;;
6306;SDS011;3186;54.062;9.962;2023-05-20T12:28:24;3.50;;;2.73;;
6306;SDS011;3186;54.062;9.962;2023-05-20T12:30:50;7.83;;;4.30;;
6306;SDS011;3186;54.062;9.962;2023-05-20T12:33:16;6.70;;;3.53;;
6306;SDS011;3186;54.062;9.962;2023-05-20T12:35:42;4.33;;;3.40;;
6306;SDS011;3186;54.062;9.962;2023-05-20T12:38:08;3.80;;;3.50;;
6306;SDS011;3186;54.062;9.962;2023-05-20T12:40:34;6.37;;;3.20;;
6306;SDS011;3186;54.062;9.962;2023-05-20T12:43:01;5.10;;;3.47;;
6306;SDS011;3186;54.062;9.962;2023-05-20T12:45:28;8.07;;;3.60;;
6306;SDS011;3186;54.062;9.962;2023-05-20T12:47:54;5.63;;;2.90;;
6306;SDS011;3186;54.062;9.962;2023-05-20T12:50:21;3.77;;;2.40;;
6306;SDS011;3186;54.062;9.962;2023-05-20T12:52:47;3.67;;;2.30;;
6306;SDS011;3186;54.062;9.962;2023-05-20T12:55:13;3.20;;;2.23;;
6306;SDS011;3186;54.062;9.962;2023-05-20T12:57:40;4.60;;;2.40;;
6306;SDS011;3186;54.062;9.962;2023-05-20T13:00:07;8.57;;;2.50;;
6306;SDS011;3186;54.062;9.962;2023-05-20T13:02:35;3.07;;;1.83;;
6306;SDS011;3186;54.062;9.962;2023-05-20T13:05:01;5.13;;;2.27;;
6306;SDS011;3186;54.062;9.962;2023-05-20T13:07:27;3.70;;;1.87;;
6306;SDS011;3186;54.062;9.962;2023-05-20T13:09:53;5.10;;;2.73;;
6306;SDS011;3186;54.062;9.962;2023-05-20T13:12:19;3.70;;;2.27;;
6306;SDS011;3186;54.062;9.962;2023-05-20T13:14:45;3.40;;;2.50;;
6306;SDS011;3186;54.062;9.962;2023-05-20T13:17:11;4.17;;;2.10;;
6306;SDS011;3186;54.062;9.962;2023-05-20T13:19:37;3.83;;;2.57;;
6306;SDS011;3186;54.062;9.962;2023-05-20T13:22:03;5.03;;;2.47;;
6306;SDS011;3186;54.062;9.962;2023-05-20T13:24:30;5.67;;;2.70;;
6306;SDS011;3186;54.062;9.962;2023-05-20T13:26:57;2.83;;;2.37;;
6306;SDS011;3186;54.062;9.962;2023-05-20T13:29:22;2.57;;;2.00;;
6306;SDS011;3186;54.062;9.962;2023-05-20T13:31:48;2.73;;;2.43;;
6306;SDS011;3186;54.062;9.962;2023-05-20T13:34:14;5.30;;;2.40;;
6306;SDS011;3186;54.062;9.962;2023-05-20T13:36:41;3.07;;;2.40;;
6306;SDS011;3186;54.062;9.962;2023-05-20T13:39:07;9.33;;;2.30;;
6306;SDS011;3186;54.062;9.962;2023-05-20T13:41:33;6.10;;;2.33;;
6306;SDS011;3186;54.062;9.962;2023-05-20T13:43:59;4.53;;;2.53;;
6306;SDS011;3186;54.062;9.962;2023-05-20T13:46:25;4.30;;;2.40;;
6306;SDS011;3186;54.062;9.962;2023-05-20T13:48:51;14.10;;;3.40;;
6306;SDS011;3186;54.062;9.962;2023-05-20T13:51:17;8.67;;;2.70;;
6306;SDS011;3186;54.062;9.962;2023-05-20T13:53:42;3.83;;;2.43;;
6306;SDS011;3186;54.062;9.962;2023-05-20T13:56:08;4.80;;;2.27;;
6306;SDS011;3186;54.062;9.962;2023-05-20T13:58:35;2.90;;;2.20;;
6306;SDS011;3186;54.062;9.962;2023-05-20T14:01:04;7.23;;;2.50;;
6306;SDS011;3186;54.062;9.962;2023-05-20T14:03:30;3.00;;;2.70;;
6306;SDS011;3186;54.062;9.962;2023-05-20T14:06:01;5.03;;;2.40;;
6306;SDS011;3186;54.062;9.962;2023-05-20T14:08:27;4.17;;;2.50;;
6306;SDS011;3186;54.062;9.962;2023-05-20T14:10:52;10.40;;;2.83;;
6306;SDS011;3186;54.062;9.962;2023-05-20T14:13:23;9.77;;;2.97;;
6306;SDS011;3186;54.062;9.962;2023-05-20T14:15:49;10.43;;;2.87;;
6306;SDS011;3186;54.062;9.962;2023-05-20T14:18:19;4.50;;;2.83;;
6306;SDS011;3186;54.062;9.962;2023-05-20T14:20:45;9.23;;;2.73;;
6306;SDS011;3186;54.062;9.962;2023-05-20T14:23:11;9.90;;;2.57;;
6306;SDS011;3186;54.062;9.962;2023-05-20T14:25:38;3.93;;;2.30;;
6306;SDS011;3186;54.062;9.962;2023-05-20T14:28:04;7.03;;;2.30;;
6306;SDS011;3186;54.062;9.962;2023-05-20T14:30:30;4.57;;;2.10;;
6306;SDS011;3186;54.062;9.962;2023-05-20T14:32:56;5.17;;;2.13;;
6306;SDS011;3186;54.062;9.962;2023-05-20T14:35:22;6.00;;;2.20;;
6306;SDS011;3186;54.062;9.962;2023-05-20T14:37:48;6.40;;;2.77;;
6306;SDS011;3186;54.062;9.962;2023-05-20T14:40:14;3.20;;;2.10;;
6306;SDS011;3186;54.062;9.962;2023-05-20T14:42:40;4.07;;;2.20;;
6306;SDS011;3186;54.062;9.962;2023-05-20T14:45:06;2.60;;;2.03;;
6306;SDS011;3186;54.062;9.962;2023-05-20T14:47:32;2.53;;;2.10;;
6306;SDS011;3186;54.062;9.962;2023-05-20T14:49:58;2.83;;;2.10;;
6306;SDS011;3186;54.062;9.962;2023-05-20T14:52:24;3.00;;;2.00;;
6306;SDS011;3186;54.062;9.962;2023-05-20T14:54:53;3.77;;;2.10;;
6306;SDS011;3186;54.062;9.962;2023-05-20T14:57:20;5.13;;;2.13;;
6306;SDS011;3186;54.062;9.962;2023-05-20T14:59:46;2.80;;;1.90;;
6306;SDS011;3186;54.062;9.962;2023-05-20T15:02:15;3.00;;;2.37;;
6306;SDS011;3186;54.062;9.962;2023-05-20T15:04:41;3.30;;;2.07;;
6306;SDS011;3186;54.062;9.962;2023-05-20T15:07:09;2.10;;;1.83;;
6306;SDS011;3186;54.062;9.962;2023-05-20T15:09:34;3.07;;;1.80;;
6306;SDS011;3186;54.062;9.962;2023-05-20T15:12:00;4.40;;;2.43;;
6306;SDS011;3186;54.062;9.962;2023-05-20T15:14:26;3.20;;;2.20;;
6306;SDS011;3186;54.062;9.962;2023-05-20T15:16:52;3.50;;;2.10;;
6306;SDS011;3186;54.062;9.962;2023-05-20T15:19:18;5.57;;;1.77;;
6306;SDS011;3186;54.062;9.962;2023-05-20T15:21:44;3.37;;;1.80;;
6306;SDS011;3186;54.062;9.962;2023-05-20T15:24:10;2.40;;;2.20;;
6306;SDS011;3186;54.062;9.962;2023-05-20T15:26:36;3.67;;;1.50;;
6306;SDS011;3186;54.062;9.962;2023-05-20T15:29:02;2.20;;;1.97;;